sensor_id;sensor_type;location;lat;lon;timestamp;P1;durP1;ratioP1;P2;durP2;ratioP2
4313;SDS011;2170;48.794;9.182;2023-02-05T00:00:54;23.13;;;14.20;;
4313;SDS011;2170;48.794;9.182;2023-02-05T00:03:21;16.50;;;13.87;;
4313;SDS011;2170;48.794;9.182;2023-02-05T00:05:49;20.03;;;13.97;;
4313;SDS011;2170;48.794;9.182;2023-02-05T00:08:16;20.57;;;13.30;;
4313;SDS011;2170;48.794;9.182;2023-02-05T00:10:43;18.40;;;13.13;;
4313;SDS011;2170;48.794;9.182;2023-02-05T00:13:16;15.57;;;12.57;;
4313;SDS011;2170;48.794;9.182;2023-02-05T00:15:43;18.97;;;13.40;;
4313;SDS011;2170;48.794;9.182;2023-02-05T00:18:10;22.37;;;14.00;;
4313;SDS011;2170;48.794;9.182;2023-02-05T00:20:37;22.13;;;14.20;;
4313;SDS011;2170;48.794;9.182;2023-02-05T00:23:06;18.07;;;13.03;;
4313;SDS011;2170;48.794;9.182;2023-02-05T00:25:33;20.60;;;13.37;;
4313;SDS011;2170;48.794;9.182;2023-02-05T00:28:00;17.33;;;13.67;;
4313;SDS011;2170;48.794;9.182;2023-02-05T00:30:27;18.07;;;12.80;;
4313;SDS011;2170;48.794;9.182;2023-02-05T00:32:54;20.70;;;13.43;;
4313;SDS011;2170;48.794;9.182;2023-02-05T00:35:21;16.50;;;13.50;;
4313;SDS011;2170;48.794;9.182;2023-02-05T00:37:48;18.27;;;13.23;;
4313;SDS011;2170;48.794;9.182;2023-02-05T00:40:16;19.70;;;12.40;;
4313;SDS011;2170;48.794;9.182;2023-02-05T00:42:43;18.67;;;13.17;;
4313;SDS011;2170;48.794;9.182;2023-02-05T00:45:10;14.60;;;11.97;;
4313;SDS011;2170;48.794;9.182;2023-02-05T00:47:37;16.83;;;12.77;;
4313;SDS011;2170;48.794;9.182;2023-02-05T00:50:05;18.57;;;12.77;;
4313;SDS011;2170;48.794;9.182;2023-02-05T00:52:32;15.57;;;12.60;;
4313;SDS011;2170;48.794;9.182;2023-02-05T00:54:59;22.57;;;13.50;;
4313;SDS011;2170;48.794;9.182;2023-02-05T00:57:27;14.40;;;12.93;;
4313;SDS011;2170;48.794;9.182;2023-02-05T00:59:54;18.27;;;13.03;;
4313;SDS011;2170;48.794;9.182;2023-02-05T01:02:21;15.67;;;13.70;;
4313;SDS011;2170;48.794;9.182;2023-02-05T01:04:49;14.30;;;12.80;;
4313;SDS011;2170;48.794;9.182;2023-02-05T01:07:16;14.63;;;12.83;;
4313;SDS011;2170;48.794;9.182;2023-02-05T01:09:43;16.30;;;13.33;;
4313;SDS011;2170;48.794;9.182;2023-02-05T01:12:10;16.47;;;12.83;;
4313;SDS011;2170;48.794;9.182;2023-02-05T01:14:39;19.07;;;12.40;;
4313;SDS011;2170;48.794;9.182;2023-02-05T01:17:06;15.30;;;12.70;;
4313;SDS011;2170;48.794;9.182;2023-02-05T01:19:33;17.00;;;12.30;;
4313;SDS011;2170;48.794;9.182;2023-02-05T01:22:00;13.47;;;12.00;;
4313;SDS011;2170;48.794;9.182;2023-02-05T01:24:27;15.53;;;12.33;;
4313;SDS011;2170;48.794;9.182;2023-02-05T01:26:55;17.20;;;12.17;;
4313;SDS011;2170;48.794;9.182;2023-02-05T01:29:23;14.47;;;12.00;;
4313;SDS011;2170;48.794;9.182;2023-02-05T01:31:51;14.40;;;11.50;;
4313;SDS011;2170;48.794;9.182;2023-02-05T01:34:19;13.17;;;11.77;;
4313;SDS011;2170;48.794;9.182;2023-02-05T01:36:46;15.03;;;12.67;;
4313;SDS011;2170;48.794;9.182;2023-02-05T01:39:13;12.80;;;11.50;;
4313;SDS011;2170;48.794;9.182;2023-02-05T01:41:40;12.87;;;11.50;;
4313;SDS011;2170;48.794;9.182;2023-02-05T01:44:09;14.10;;;12.80;;
4313;SDS011;2170;48.794;9.182;2023-02-05T01:46:37;15.60;;;12.80;;
4313;SDS011;2170;48.794;9.182;2023-02-05T01:49:06;17.50;;;13.53;;
4313;SDS011;2170;48.794;9.182;2023-02-05T01:51:35;14.07;;;12.53;;
4313;SDS011;2170;48.794;9.182;2023-02-05T01:54:03;21.90;;;14.23;;
4313;SDS011;2170;48.794;9.182;2023-02-05T01:56:31;16.50;;;13.40;;
4313;SDS011;2170;48.794;9.182;2023-02-05T01:59:00;20.90;;;12.13;;
4313;SDS011;2170;48.794;9.182;2023-02-05T02:01:28;18.70;;;12.90;;
4313;SDS011;2170;48.794;9.182;2023-02-05T02:03:56;19.53;;;12.50;;
4313;SDS011;2170;48.794;9.182;2023-02-05T02:06:26;18.87;;;13.30;;
4313;SDS011;2170;48.794;9.182;2023-02-05T02:08:53;14.07;;;12.57;;
4313;SDS011;2170;48.794;9.182;2023-02-05T02:11:20;14.40;;;12.43;;
4313;SDS011;2170;48.794;9.182;2023-02-05T02:13:47;16.50;;;11.77;;
4313;SDS011;2170;48.794;9.182;2023-02-05T02:16:15;18.10;;;12.50;;
4313;SDS011;2170;48.794;9.182;2023-02-05T02:18:42;14.67;;;10.90;;
4313;SDS011;2170;48.794;9.182;2023-02-05T02:21:18;16.03;;;11.50;;
4313;SDS011;2170;48.794;9.182;2023-02-05T02:23:55;13.93;;;12.50;;
4313;SDS011;2170;48.794;9.182;2023-02-05T02:26:31;12.67;;;11.37;;
4313;SDS011;2170;48.794;9.182;2023-02-05T02:29:08;13.90;;;12.40;;
4313;SDS011;2170;48.794;9.182;2023-02-05T02:31:38;14.60;;;11.80;;
4313;SDS011;2170;48.794;9.182;2023-02-05T02:34:09;13.97;;;12.47;;
4313;SDS011;2170;48.794;9.182;2023-02-05T02:36:39;15.83;;;12.70;;
4313;SDS011;2170;48.794;9.182;2023-02-05T02:39:10;13.63;;;12.23;;
4313;SDS011;2170;48.794;9.182;2023-02-05T02:41:40;14.03;;;11.93;;
4313;SDS011;2170;48.794;9.182;2023-02-05T02:44:10;15.17;;;13.17;;
4313;SDS011;2170;48.794;9.182;2023-02-05T02:46:39;16.27;;;12.80;;
4313;SDS011;2170;48.794;9.182;2023-02-05T02:49:08;15.77;;;13.03;;
4313;SDS011;2170;48.794;9.182;2023-02-05T02:51:37;15.27;;;12.73;;
4313;SDS011;2170;48.794;9.182;2023-02-05T02:54:06;13.63;;;11.33;;
4313;SDS011;2170;48.794;9.182;2023-02-05T02:56:34;14.13;;;12.50;;
4313;SDS011;2170;48.794;9.182;2023-02-05T02:59:04;16.40;;;12.17;;
4313;SDS011;2170;48.794;9.182;2023-02-05T03:01:33;14.03;;;12.33;;
4313;SDS011;2170;48.794;9.182;2023-02-05T03:04:02;14.30;;;12.80;;
4313;SDS011;2170;48.794;9.182;2023-02-05T03:06:30;21.07;;;13.70;;
4313;SDS011;2170;48.794;9.182;2023-02-05T03:09:00;16.10;;;12.37;;
4313;SDS011;2170;48.794;9.182;2023-02-05T03:11:29;16.03;;;12.57;;
4313;SDS011;2170;48.794;9.182;2023-02-05T03:13:56;14.60;;;12.40;;
4313;SDS011;2170;48.794;9.182;2023-02-05T03:16:25;15.87;;;12.30;;
4313;SDS011;2170;48.794;9.182;2023-02-05T03:18:53;14.57;;;12.70;;
4313;SDS011;2170;48.794;9.182;2023-02-05T03:21:22;17.17;;;12.90;;
4313;SDS011;2170;48.794;9.182;2023-02-05T03:23:50;19.63;;;13.07;;
4313;SDS011;2170;48.794;9.182;2023-02-05T03:26:24;16.47;;;12.93;;
4313;SDS011;2170;48.794;9.182;2023-02-05T03:28:51;13.70;;;12.40;;
4313;SDS011;2170;48.794;9.182;2023-02-05T03:31:19;16.50;;;12.53;;
4313;SDS011;2170;48.794;9.182;2023-02-05T03:33:50;16.80;;;12.47;;
4313;SDS011;2170;48.794;9.182;2023-02-05T03:36:22;13.80;;;12.30;;
4313;SDS011;2170;48.794;9.182;2023-02-05T03:38:55;14.07;;;12.67;;
4313;SDS011;2170;48.794;9.182;2023-02-05T03:41:27;14.00;;;12.50;;
4313;SDS011;2170;48.794;9.182;2023-02-05T03:44:12;15.50;;;11.80;;
4313;SDS011;2170;48.794;9.182;2023-02-05T03:46:43;17.20;;;12.93;;
4313;SDS011;2170;48.794;9.182;2023-02-05T03:49:14;14.63;;;12.53;;
4313;SDS011;2170;48.794;9.182;2023-02-05T03:51:48;15.13;;;12.73;;
4313;SDS011;2170;48.794;9.182;2023-02-05T03:54:17;14.60;;;12.70;;
4313;SDS011;2170;48.794;9.182;2023-02-05T03:56:49;13.53;;;12.13;;
4313;SDS011;2170;48.794;9.182;2023-02-05T03:59:17;15.70;;;11.73;;
4313;SDS011;2170;48.794;9.182;2023-02-05T04:01:45;15.20;;;13.10;;
4313;SDS011;2170;48.794;9.182;2023-02-05T04:04:12;14.73;;;12.30;;
4313;SDS011;2170;48.794;9.182;2023-02-05T04:06:39;14.90;;;13.40;;
4313;SDS011;2170;48.794;9.182;2023-02-05T04:09:08;14.20;;;12.90;;
4313;SDS011;2170;48.794;9.182;2023-02-05T04:11:35;14.57;;;12.23;;
4313;SDS011;2170;48.794;9.182;2023-02-05T04:14:02;13.83;;;12.50;;
4313;SDS011;2170;48.794;9.182;2023-02-05T04:16:30;18.03;;;12.60;;
4313;SDS011;2170;48.794;9.182;2023-02-05T04:18:57;13.90;;;12.13;;
4313;SDS011;2170;48.794;9.182;2023-02-05T04:21:24;14.27;;;12.83;;
4313;SDS011;2170;48.794;9.182;2023-02-05T04:23:51;15.50;;;12.80;;
4313;SDS011;2170;48.794;9.182;2023-02-05T04:26:19;16.03;;;13.97;;
4313;SDS011;2170;48.794;9.182;2023-02-05T04:28:46;14.93;;;12.53;;
4313;SDS011;2170;48.794;9.182;2023-02-05T04:31:13;13.30;;;11.90;;
4313;SDS011;2170;48.794;9.182;2023-02-05T04:33:41;15.73;;;12.80;;
4313;SDS011;2170;48.794;9.182;2023-02-05T04:36:08;13.40;;;12.07;;
4313;SDS011;2170;48.794;9.182;2023-02-05T04:38:35;16.90;;;14.03;;
4313;SDS011;2170;48.794;9.182;2023-02-05T04:41:02;14.67;;;13.17;;
4313;SDS011;2170;48.794;9.182;2023-02-05T04:43:31;17.40;;;13.50;;
4313;SDS011;2170;48.794;9.182;2023-02-05T04:46:03;13.50;;;11.70;;
4313;SDS011;2170;48.794;9.182;2023-02-05T04:48:30;14.83;;;12.50;;
4313;SDS011;2170;48.794;9.182;2023-02-05T04:50:57;17.10;;;15.20;;
4313;SDS011;2170;48.794;9.182;2023-02-05T04:53:24;17.97;;;13.87;;
4313;SDS011;2170;48.794;9.182;2023-02-05T04:55:51;14.83;;;12.93;;
4313;SDS011;2170;48.794;9.182;2023-02-05T04:58:18;13.87;;;12.57;;
4313;SDS011;2170;48.794;9.182;2023-02-05T05:00:47;14.70;;;13.03;;
4313;SDS011;2170;48.794;9.182;2023-02-05T05:03:14;14.50;;;13.00;;
4313;SDS011;2170;48.794;9.182;2023-02-05T05:05:41;14.97;;;12.50;;
4313;SDS011;2170;48.794;9.182;2023-02-05T05:08:08;16.60;;;12.70;;
4313;SDS011;2170;48.794;9.182;2023-02-05T05:10:36;17.87;;;12.93;;
4313;SDS011;2170;48.794;9.182;2023-02-05T05:13:03;16.87;;;12.97;;
4313;SDS011;2170;48.794;9.182;2023-02-05T05:15:30;14.00;;;12.37;;
4313;SDS011;2170;48.794;9.182;2023-02-05T05:17:59;16.13;;;13.63;;
4313;SDS011;2170;48.794;9.182;2023-02-05T05:20:26;17.57;;;13.97;;
4313;SDS011;2170;48.794;9.182;2023-02-05T05:22:53;18.50;;;14.30;;
4313;SDS011;2170;48.794;9.182;2023-02-05T05:25:21;16.13;;;12.90;;
4313;SDS011;2170;48.794;9.182;2023-02-05T05:27:48;17.00;;;13.30;;
4313;SDS011;2170;48.794;9.182;2023-02-05T05:30:15;17.97;;;12.73;;
4313;SDS011;2170;48.794;9.182;2023-02-05T05:32:42;15.40;;;12.50;;
4313;SDS011;2170;48.794;9.182;2023-02-05T05:35:10;17.83;;;13.73;;
4313;SDS011;2170;48.794;9.182;2023-02-05T05:37:37;14.57;;;13.07;;
4313;SDS011;2170;48.794;9.182;2023-02-05T05:40:05;14.43;;;13.00;;
4313;SDS011;2170;48.794;9.182;2023-02-05T05:42:50;14.87;;;12.37;;
4313;SDS011;2170;48.794;9.182;2023-02-05T05:45:34;15.10;;;13.33;;
4313;SDS011;2170;48.794;9.182;2023-02-05T05:48:01;16.00;;;13.03;;
4313;SDS011;2170;48.794;9.182;2023-02-05T05:50:30;15.00;;;12.03;;
4313;SDS011;2170;48.794;9.182;2023-02-05T05:52:57;15.17;;;13.13;;
4313;SDS011;2170;48.794;9.182;2023-02-05T05:55:24;17.30;;;13.60;;
4313;SDS011;2170;48.794;9.182;2023-02-05T05:57:51;18.87;;;13.23;;
4313;SDS011;2170;48.794;9.182;2023-02-05T06:00:18;16.03;;;14.43;;
4313;SDS011;2170;48.794;9.182;2023-02-05T06:02:45;14.47;;;12.70;;
4313;SDS011;2170;48.794;9.182;2023-02-05T06:05:12;18.40;;;14.20;;
4313;SDS011;2170;48.794;9.182;2023-02-05T06:07:41;17.90;;;14.23;;
4313;SDS011;2170;48.794;9.182;2023-02-05T06:10:08;16.57;;;12.90;;
4313;SDS011;2170;48.794;9.182;2023-02-05T06:12:35;16.20;;;14.10;;
4313;SDS011;2170;48.794;9.182;2023-02-05T06:15:02;18.30;;;13.60;;
4313;SDS011;2170;48.794;9.182;2023-02-05T06:17:29;18.07;;;12.70;;
4313;SDS011;2170;48.794;9.182;2023-02-05T06:19:56;17.53;;;12.93;;
4313;SDS011;2170;48.794;9.182;2023-02-05T06:22:23;18.97;;;13.30;;
4313;SDS011;2170;48.794;9.182;2023-02-05T06:24:52;17.83;;;12.30;;
4313;SDS011;2170;48.794;9.182;2023-02-05T06:27:19;15.90;;;13.53;;
4313;SDS011;2170;48.794;9.182;2023-02-05T06:29:46;14.83;;;13.37;;
4313;SDS011;2170;48.794;9.182;2023-02-05T06:32:13;17.83;;;13.83;;
4313;SDS011;2170;48.794;9.182;2023-02-05T06:34:40;18.30;;;13.40;;
4313;SDS011;2170;48.794;9.182;2023-02-05T06:37:08;16.60;;;15.10;;
4313;SDS011;2170;48.794;9.182;2023-02-05T06:39:35;24.93;;;12.87;;
4313;SDS011;2170;48.794;9.182;2023-02-05T06:42:04;16.43;;;13.40;;
4313;SDS011;2170;48.794;9.182;2023-02-05T06:44:31;15.93;;;13.00;;
4313;SDS011;2170;48.794;9.182;2023-02-05T06:46:58;15.77;;;13.43;;
4313;SDS011;2170;48.794;9.182;2023-02-05T06:49:25;16.27;;;13.30;;
4313;SDS011;2170;48.794;9.182;2023-02-05T06:51:52;17.80;;;12.00;;
4313;SDS011;2170;48.794;9.182;2023-02-05T06:54:19;16.13;;;13.70;;
4313;SDS011;2170;48.794;9.182;2023-02-05T06:56:46;16.10;;;13.70;;
4313;SDS011;2170;48.794;9.182;2023-02-05T06:59:15;16.20;;;13.63;;
4313;SDS011;2170;48.794;9.182;2023-02-05T07:01:42;19.60;;;13.70;;
4313;SDS011;2170;48.794;9.182;2023-02-05T07:04:09;19.67;;;13.20;;
4313;SDS011;2170;48.794;9.182;2023-02-05T07:06:36;14.20;;;12.67;;
4313;SDS011;2170;48.794;9.182;2023-02-05T07:09:03;18.90;;;12.93;;
4313;SDS011;2170;48.794;9.182;2023-02-05T07:11:30;15.63;;;13.97;;
4313;SDS011;2170;48.794;9.182;2023-02-05T07:13:59;18.60;;;14.37;;
4313;SDS011;2170;48.794;9.182;2023-02-05T07:16:27;16.33;;;13.33;;
4313;SDS011;2170;48.794;9.182;2023-02-05T07:18:54;15.73;;;12.77;;
4313;SDS011;2170;48.794;9.182;2023-02-05T07:21:21;13.40;;;12.10;;
4313;SDS011;2170;48.794;9.182;2023-02-05T07:23:48;18.33;;;13.93;;
4313;SDS011;2170;48.794;9.182;2023-02-05T07:26:16;18.40;;;12.70;;
4313;SDS011;2170;48.794;9.182;2023-02-05T07:28:44;13.93;;;12.43;;
4313;SDS011;2170;48.794;9.182;2023-02-05T07:31:12;17.20;;;12.80;;
4313;SDS011;2170;48.794;9.182;2023-02-05T07:33:41;16.20;;;12.73;;
4313;SDS011;2170;48.794;9.182;2023-02-05T07:36:09;14.50;;;12.60;;
4313;SDS011;2170;48.794;9.182;2023-02-05T07:38:37;14.80;;;12.77;;
4313;SDS011;2170;48.794;9.182;2023-02-05T07:41:04;18.40;;;12.70;;
4313;SDS011;2170;48.794;9.182;2023-02-05T07:43:32;21.83;;;14.20;;
4313;SDS011;2170;48.794;9.182;2023-02-05T07:46:00;15.87;;;13.43;;
4313;SDS011;2170;48.794;9.182;2023-02-05T07:48:27;18.67;;;14.47;;
4313;SDS011;2170;48.794;9.182;2023-02-05T07:50:56;16.23;;;12.97;;
4313;SDS011;2170;48.794;9.182;2023-02-05T07:53:23;18.43;;;14.53;;
4313;SDS011;2170;48.794;9.182;2023-02-05T07:55:50;17.03;;;12.27;;
4313;SDS011;2170;48.794;9.182;2023-02-05T07:58:17;14.90;;;12.60;;
4313;SDS011;2170;48.794;9.182;2023-02-05T08:00:44;15.97;;;13.00;;
4313;SDS011;2170;48.794;9.182;2023-02-05T08:03:11;15.20;;;13.07;;
4313;SDS011;2170;48.794;9.182;2023-02-05T08:05:38;14.70;;;12.40;;
4313;SDS011;2170;48.794;9.182;2023-02-05T08:08:12;15.90;;;12.70;;
4313;SDS011;2170;48.794;9.182;2023-02-05T08:10:40;15.13;;;12.07;;
4313;SDS011;2170;48.794;9.182;2023-02-05T08:13:07;24.40;;;17.20;;
4313;SDS011;2170;48.794;9.182;2023-02-05T08:15:36;52.40;;;32.23;;
4313;SDS011;2170;48.794;9.182;2023-02-05T08:18:03;40.67;;;30.00;;
4313;SDS011;2170;48.794;9.182;2023-02-05T08:20:30;16.70;;;12.90;;
4313;SDS011;2170;48.794;9.182;2023-02-05T08:22:57;13.47;;;11.70;;
4313;SDS011;2170;48.794;9.182;2023-02-05T08:25:30;13.23;;;11.90;;
4313;SDS011;2170;48.794;9.182;2023-02-05T08:27:57;14.87;;;11.43;;
4313;SDS011;2170;48.794;9.182;2023-02-05T08:30:24;19.07;;;12.40;;
4313;SDS011;2170;48.794;9.182;2023-02-05T08:32:51;13.03;;;11.70;;
4313;SDS011;2170;48.794;9.182;2023-02-05T08:35:18;16.43;;;12.00;;
4313;SDS011;2170;48.794;9.182;2023-02-05T08:37:45;14.40;;;12.70;;
4313;SDS011;2170;48.794;9.182;2023-02-05T08:40:12;15.07;;;12.17;;
4313;SDS011;2170;48.794;9.182;2023-02-05T08:42:41;14.13;;;12.23;;
4313;SDS011;2170;48.794;9.182;2023-02-05T08:45:08;17.20;;;11.20;;
4313;SDS011;2170;48.794;9.182;2023-02-05T08:47:35;16.63;;;11.83;;
4313;SDS011;2170;48.794;9.182;2023-02-05T08:50:02;13.77;;;12.33;;
4313;SDS011;2170;48.794;9.182;2023-02-05T08:52:30;13.27;;;11.90;;
4313;SDS011;2170;48.794;9.182;2023-02-05T08:54:57;13.73;;;12.20;;
4313;SDS011;2170;48.794;9.182;2023-02-05T08:57:25;17.63;;;12.90;;
4313;SDS011;2170;48.794;9.182;2023-02-05T08:59:54;15.33;;;12.37;;
4313;SDS011;2170;48.794;9.182;2023-02-05T09:02:21;16.27;;;12.97;;
4313;SDS011;2170;48.794;9.182;2023-02-05T09:04:48;13.83;;;12.50;;
4313;SDS011;2170;48.794;9.182;2023-02-05T09:07:15;14.13;;;12.20;;
4313;SDS011;2170;48.794;9.182;2023-02-05T09:09:42;19.50;;;13.73;;
4313;SDS011;2170;48.794;9.182;2023-02-05T09:12:09;16.00;;;12.73;;
4313;SDS011;2170;48.794;9.182;2023-02-05T09:14:36;14.10;;;12.70;;
4313;SDS011;2170;48.794;9.182;2023-02-05T09:17:06;15.20;;;12.40;;
4313;SDS011;2170;48.794;9.182;2023-02-05T09:19:33;15.80;;;12.47;;
4313;SDS011;2170;48.794;9.182;2023-02-05T09:22:00;16.70;;;13.00;;
4313;SDS011;2170;48.794;9.182;2023-02-05T09:24:27;16.90;;;13.37;;
4313;SDS011;2170;48.794;9.182;2023-02-05T09:26:54;16.23;;;13.20;;
4313;SDS011;2170;48.794;9.182;2023-02-05T09:29:21;15.00;;;12.00;;
4313;SDS011;2170;48.794;9.182;2023-02-05T09:31:49;14.50;;;13.00;;
4313;SDS011;2170;48.794;9.182;2023-02-05T09:34:17;17.50;;;14.23;;
4313;SDS011;2170;48.794;9.182;2023-02-05T09:36:44;15.50;;;12.40;;
4313;SDS011;2170;48.794;9.182;2023-02-05T09:39:11;15.33;;;13.73;;
4313;SDS011;2170;48.794;9.182;2023-02-05T09:41:39;15.30;;;13.03;;
4313;SDS011;2170;48.794;9.182;2023-02-05T09:44:12;15.93;;;13.10;;
4313;SDS011;2170;48.794;9.182;2023-02-05T09:46:42;14.20;;;12.63;;
4313;SDS011;2170;48.794;9.182;2023-02-05T09:49:13;16.93;;;15.17;;
4313;SDS011;2170;48.794;9.182;2023-02-05T09:51:44;20.23;;;14.93;;
4313;SDS011;2170;48.794;9.182;2023-02-05T09:54:14;17.97;;;14.10;;
4313;SDS011;2170;48.794;9.182;2023-02-05T09:56:42;17.70;;;13.90;;
4313;SDS011;2170;48.794;9.182;2023-02-05T09:59:12;20.30;;;15.10;;
4313;SDS011;2170;48.794;9.182;2023-02-05T10:01:41;15.53;;;13.00;;
4313;SDS011;2170;48.794;9.182;2023-02-05T10:04:09;17.00;;;14.27;;
4313;SDS011;2170;48.794;9.182;2023-02-05T10:06:42;17.87;;;14.33;;
4313;SDS011;2170;48.794;9.182;2023-02-05T10:09:22;17.33;;;14.30;;
4313;SDS011;2170;48.794;9.182;2023-02-05T10:11:53;21.47;;;15.10;;
4313;SDS011;2170;48.794;9.182;2023-02-05T10:14:27;17.30;;;14.43;;
4313;SDS011;2170;48.794;9.182;2023-02-05T10:19:53;18.53;;;15.20;;
4313;SDS011;2170;48.794;9.182;2023-02-05T10:22:25;18.57;;;15.03;;
4313;SDS011;2170;48.794;9.182;2023-02-05T10:24:58;19.70;;;14.67;;
4313;SDS011;2170;48.794;9.182;2023-02-05T10:27:29;21.70;;;16.57;;
4313;SDS011;2170;48.794;9.182;2023-02-05T10:30:02;17.70;;;15.50;;
4313;SDS011;2170;48.794;9.182;2023-02-05T10:32:32;19.73;;;14.80;;
4313;SDS011;2170;48.794;9.182;2023-02-05T10:35:05;20.03;;;16.40;;
4313;SDS011;2170;48.794;9.182;2023-02-05T10:37:37;27.13;;;17.10;;
4313;SDS011;2170;48.794;9.182;2023-02-05T10:40:11;24.43;;;18.73;;
4313;SDS011;2170;48.794;9.182;2023-02-05T10:42:40;18.80;;;16.90;;
4313;SDS011;2170;48.794;9.182;2023-02-05T10:45:12;18.83;;;15.30;;
4313;SDS011;2170;48.794;9.182;2023-02-05T10:47:43;18.70;;;16.87;;
4313;SDS011;2170;48.794;9.182;2023-02-05T10:50:15;18.50;;;16.50;;
4313;SDS011;2170;48.794;9.182;2023-02-05T10:52:44;21.63;;;16.13;;
4313;SDS011;2170;48.794;9.182;2023-02-05T10:55:12;18.77;;;15.97;;
4313;SDS011;2170;48.794;9.182;2023-02-05T10:57:39;20.50;;;15.73;;
4313;SDS011;2170;48.794;9.182;2023-02-05T11:00:12;17.33;;;15.53;;
4313;SDS011;2170;48.794;9.182;2023-02-05T11:02:40;21.73;;;16.23;;
4313;SDS011;2170;48.794;9.182;2023-02-05T11:05:13;20.90;;;17.70;;
4313;SDS011;2170;48.794;9.182;2023-02-05T11:07:42;18.77;;;16.80;;
4313;SDS011;2170;48.794;9.182;2023-02-05T11:10:15;23.20;;;17.90;;
4313;SDS011;2170;48.794;9.182;2023-02-05T11:12:42;21.90;;;17.97;;
4313;SDS011;2170;48.794;9.182;2023-02-05T11:15:17;18.43;;;16.23;;
4313;SDS011;2170;48.794;9.182;2023-02-05T11:17:48;18.53;;;16.10;;
4313;SDS011;2170;48.794;9.182;2023-02-05T11:20:24;20.60;;;15.53;;
4313;SDS011;2170;48.794;9.182;2023-02-05T11:23:03;20.57;;;15.73;;
4313;SDS011;2170;48.794;9.182;2023-02-05T11:25:32;18.50;;;16.07;;
4313;SDS011;2170;48.794;9.182;2023-02-05T11:28:00;19.50;;;17.50;;
4313;SDS011;2170;48.794;9.182;2023-02-05T11:30:28;19.50;;;17.50;;
4313;SDS011;2170;48.794;9.182;2023-02-05T11:32:56;19.53;;;15.53;;
4313;SDS011;2170;48.794;9.182;2023-02-05T11:35:24;21.27;;;17.43;;
4313;SDS011;2170;48.794;9.182;2023-02-05T11:37:58;23.17;;;17.70;;
4313;SDS011;2170;48.794;9.182;2023-02-05T11:40:26;20.37;;;17.13;;
4313;SDS011;2170;48.794;9.182;2023-02-05T11:43:00;20.13;;;16.83;;
4313;SDS011;2170;48.794;9.182;2023-02-05T11:45:28;19.77;;;17.57;;
4313;SDS011;2170;48.794;9.182;2023-02-05T11:47:56;17.87;;;16.27;;
4313;SDS011;2170;48.794;9.182;2023-02-05T11:50:24;21.17;;;16.20;;
4313;SDS011;2170;48.794;9.182;2023-02-05T11:52:52;18.53;;;16.80;;
4313;SDS011;2170;48.794;9.182;2023-02-05T11:55:23;20.70;;;16.33;;
4313;SDS011;2170;48.794;9.182;2023-02-05T11:57:56;25.40;;;18.00;;
4313;SDS011;2170;48.794;9.182;2023-02-05T12:00:25;26.17;;;19.00;;
4313;SDS011;2170;48.794;9.182;2023-02-05T12:03:00;20.90;;;17.97;;
4313;SDS011;2170;48.794;9.182;2023-02-05T12:05:28;21.13;;;17.30;;
4313;SDS011;2170;48.794;9.182;2023-02-05T12:07:57;21.20;;;17.23;;
4313;SDS011;2170;48.794;9.182;2023-02-05T12:10:30;19.90;;;17.07;;
4313;SDS011;2170;48.794;9.182;2023-02-05T12:13:03;18.60;;;16.70;;
4313;SDS011;2170;48.794;9.182;2023-02-05T12:15:36;20.17;;;18.00;;
4313;SDS011;2170;48.794;9.182;2023-02-05T12:18:08;21.03;;;17.80;;
4313;SDS011;2170;48.794;9.182;2023-02-05T12:20:38;20.40;;;17.80;;
4313;SDS011;2170;48.794;9.182;2023-02-05T12:25:51;20.17;;;18.27;;
4313;SDS011;2170;48.794;9.182;2023-02-05T12:28:24;22.30;;;18.47;;
4313;SDS011;2170;48.794;9.182;2023-02-05T12:30:57;22.40;;;18.77;;
4313;SDS011;2170;48.794;9.182;2023-02-05T12:36:12;19.13;;;17.13;;
4313;SDS011;2170;48.794;9.182;2023-02-05T12:38:47;22.50;;;17.47;;
4313;SDS011;2170;48.794;9.182;2023-02-05T12:41:20;21.17;;;16.30;;
4313;SDS011;2170;48.794;9.182;2023-02-05T12:43:49;18.47;;;15.97;;
4313;SDS011;2170;48.794;9.182;2023-02-05T12:46:28;18.77;;;16.30;;
4313;SDS011;2170;48.794;9.182;2023-02-05T12:49:07;21.50;;;17.77;;
4313;SDS011;2170;48.794;9.182;2023-02-05T12:51:41;22.17;;;18.47;;
4313;SDS011;2170;48.794;9.182;2023-02-05T12:54:17;20.30;;;18.30;;
4313;SDS011;2170;48.794;9.182;2023-02-05T12:56:51;21.80;;;18.80;;
4313;SDS011;2170;48.794;9.182;2023-02-05T12:59:22;17.73;;;15.10;;
4313;SDS011;2170;48.794;9.182;2023-02-05T13:01:54;19.67;;;16.33;;
4313;SDS011;2170;48.794;9.182;2023-02-05T13:04:24;23.13;;;17.97;;
4313;SDS011;2170;48.794;9.182;2023-02-05T13:06:55;20.60;;;16.60;;
4313;SDS011;2170;48.794;9.182;2023-02-05T13:09:24;18.33;;;16.00;;
4313;SDS011;2170;48.794;9.182;2023-02-05T13:11:55;17.63;;;15.73;;
4313;SDS011;2170;48.794;9.182;2023-02-05T13:14:24;17.43;;;15.53;;
4313;SDS011;2170;48.794;9.182;2023-02-05T13:16:54;20.10;;;16.10;;
4313;SDS011;2170;48.794;9.182;2023-02-05T13:19:23;18.13;;;16.20;;
4313;SDS011;2170;48.794;9.182;2023-02-05T13:21:51;17.40;;;15.70;;
4313;SDS011;2170;48.794;9.182;2023-02-05T13:24:37;18.27;;;16.57;;
4313;SDS011;2170;48.794;9.182;2023-02-05T13:27:23;18.43;;;16.10;;
4313;SDS011;2170;48.794;9.182;2023-02-05T13:30:10;18.90;;;16.20;;
4313;SDS011;2170;48.794;9.182;2023-02-05T13:32:40;22.07;;;16.03;;
4313;SDS011;2170;48.794;9.182;2023-02-05T13:35:08;17.73;;;15.13;;
4313;SDS011;2170;48.794;9.182;2023-02-05T13:37:47;16.97;;;15.27;;
4313;SDS011;2170;48.794;9.182;2023-02-05T13:40:23;21.00;;;16.50;;
4313;SDS011;2170;48.794;9.182;2023-02-05T13:43:01;11.00;;;9.60;;
4313;SDS011;2170;48.794;9.182;2023-02-05T13:45:39;12.43;;;9.40;;
4313;SDS011;2170;48.794;9.182;2023-02-05T13:48:15;9.03;;;7.53;;
4313;SDS011;2170;48.794;9.182;2023-02-05T13:53:41;7.77;;;7.10;;
4313;SDS011;2170;48.794;9.182;2023-02-05T13:56:22;7.90;;;6.63;;
4313;SDS011;2170;48.794;9.182;2023-02-05T13:58:54;6.20;;;5.60;;
4313;SDS011;2170;48.794;9.182;2023-02-05T14:01:23;7.83;;;5.93;;
4313;SDS011;2170;48.794;9.182;2023-02-05T14:03:55;6.30;;;5.70;;
4313;SDS011;2170;48.794;9.182;2023-02-05T14:06:26;6.63;;;5.90;;
4313;SDS011;2170;48.794;9.182;2023-02-05T14:08:55;6.17;;;5.57;;
4313;SDS011;2170;48.794;9.182;2023-02-05T14:11:23;5.93;;;5.43;;
4313;SDS011;2170;48.794;9.182;2023-02-05T14:16:36;5.03;;;4.63;;
4313;SDS011;2170;48.794;9.182;2023-02-05T14:19:13;6.50;;;5.40;;
4313;SDS011;2170;48.794;9.182;2023-02-05T14:21:47;5.00;;;4.60;;
4313;SDS011;2170;48.794;9.182;2023-02-05T14:24:24;7.13;;;4.57;;
4313;SDS011;2170;48.794;9.182;2023-02-05T14:26:52;4.73;;;4.37;;
4313;SDS011;2170;48.794;9.182;2023-02-05T14:29:36;5.13;;;4.17;;
4313;SDS011;2170;48.794;9.182;2023-02-05T14:32:03;3.50;;;3.20;;
4313;SDS011;2170;48.794;9.182;2023-02-05T14:42:47;5.03;;;4.63;;
4313;SDS011;2170;48.794;9.182;2023-02-05T14:45:15;4.10;;;3.80;;
4313;SDS011;2170;48.794;9.182;2023-02-05T14:47:43;4.10;;;3.90;;
4313;SDS011;2170;48.794;9.182;2023-02-05T14:50:16;3.90;;;3.60;;
4313;SDS011;2170;48.794;9.182;2023-02-05T14:52:45;4.73;;;4.33;;
4313;SDS011;2170;48.794;9.182;2023-02-05T14:55:16;5.27;;;4.80;;
4313;SDS011;2170;48.794;9.182;2023-02-05T14:57:45;4.60;;;4.30;;
4313;SDS011;2170;48.794;9.182;2023-02-05T15:00:21;4.73;;;4.33;;
4313;SDS011;2170;48.794;9.182;2023-02-05T15:03:07;5.40;;;5.00;;
4313;SDS011;2170;48.794;9.182;2023-02-05T15:05:39;4.47;;;4.17;;
4313;SDS011;2170;48.794;9.182;2023-02-05T15:08:08;4.97;;;4.67;;
4313;SDS011;2170;48.794;9.182;2023-02-05T15:10:43;5.47;;;4.90;;
4313;SDS011;2170;48.794;9.182;2023-02-05T15:13:11;4.60;;;4.20;;
4313;SDS011;2170;48.794;9.182;2023-02-05T15:15:40;5.30;;;4.80;;
4313;SDS011;2170;48.794;9.182;2023-02-05T15:18:13;5.20;;;4.70;;
4313;SDS011;2170;48.794;9.182;2023-02-05T15:20:41;4.97;;;4.57;;
4313;SDS011;2170;48.794;9.182;2023-02-05T15:23:19;5.30;;;4.87;;
4313;SDS011;2170;48.794;9.182;2023-02-05T15:25:52;5.13;;;4.63;;